Terminal Aerodrome Forecast
Issued by NWS

Home | Current Version | Previous Version | Text Only | Print | Product List | Glossary On
Versions: 1 2 3 4 5 6 7 8 9 10 11 12 13 14 15 16
595
FTUS44 KCRP 240537
TAFALI
TAF
KALI 240537Z 2406/2506 14006KT P6SM SCT020
      TEMPO 2406/2408 BKN020
     FM240800 15005KT P6SM SCT009 BKN015
      TEMPO 2410/2412 5SM BR
     FM241500 15008KT P6SM SCT025
      TEMPO 2415/2418 BKN025
     FM241800 11010KT P6SM BKN035 PROB30 2418/2422 5SM TSRA BKN030CB
     FM242200 10012G18KT P6SM SCT040 BKN150
     FM250200 12006KT P6SM SCT025 SCT150=

USA.gov is the U.S. government's official web portal to all federal, state and local government web resources and services.